Meteo Giornale » Osservazioni meteo Italia » Ronchi Dei Legionari

ore: 03:50 - Osservazioni Meteo Ronchi Dei Legionari
Lat. 45° 49' N Lon. 13° 29' E Alt. 12 metri s.l.m.

nuvoloso Europe/Rome

3 °C

Nuvoloso

Temp. 24 Ore

2 °C

19 °C

Nord

11.1 Km/h

Dew point 3 °C

Umidità 100 %

Visibilità  10 Km

Il sole sorge alle ore 06:46

Il sole tramonta alle ore 17:51

Data e Ora Cielo e Fenomeni T °C DP °C Um. % Pres. hPa Vis. km Vento km/h
Oggi h: 03:50 nuvoloso Nuvoloso 3 3 100 1022 10 N 11.1
Oggi h: 02:50 poco_nuvoloso Poco Nuvoloso 4 4 100 1023 10 N/NE 7.4
Oggi h: 02:20 sereno Sereno 3 3 100 1023 9 N 5.5
Oggi h: 01:50 sereno Sereno 4 3 93 1023 9 N 5.5
Oggi h: 01:20 sereno Sereno 4 3 93 1023 10 N 3.7
Oggi h: 00:50 sereno Sereno 4 4 100 1023 7 N 3.7
Oggi h: 00:20 sereno Sereno 4 3 93 1023 8 N 5.5
Ieri h: 23:50 sereno Sereno 5 4 93 1024 6 N 5.5
Ieri h: 22:50 sereno Sereno 5 4 93 1024 7 N 5.5
Ieri h: 22:20 sereno Sereno 5 4 93 1024 9 N 1.8
Ieri h: 21:50 sereno Sereno 7 5 87 1024 10 N 3.7
Ieri h: 21:20 sereno Sereno 7 5 87 1024 10 N 3.7
Ieri h: 20:50 sereno Sereno 7 5 87 1024 10 N 1.8
Ieri h: 19:50 sereno Sereno 9 5 75 1024 10 N 5.5
Ieri h: 19:20 sereno Sereno 10 6 76 1024 10 N 3.7
Ieri h: 18:50 sereno Sereno 11 7 76 1024 10 N 5.5
Ieri h: 18:20 sereno Sereno 12 7 71 1024 10 N 5.5
Ieri h: 17:50 sereno Sereno 13 7 66 1024 10 N 5.5
Ieri h: 17:20 sereno Sereno 15 8 62 1024 10 S/SE 7.4
Ieri h: 16:50 sereno Sereno 17 8 55 1024 10 S/SE 9.3
Ieri h: 16:20 sereno Sereno 18 5 42 1024 10 N 5.5
Ieri h: 15:50 sereno Sereno 19 5 39 1025 10 S/SO 7.4
Ieri h: 15:20 sereno Sereno 19 7 45 1025 10 S 7.4
Ieri h: 14:50 sereno Sereno 19 7 45 1025 10 S 7.4
Ieri h: 14:20 sereno Sereno 18 7 48 1026 10 S 7.4
Ieri h: 13:50 sereno Sereno 18 6 45 1026 10 S/SE 11.1
Ieri h: 13:20 sereno Sereno 18 7 48 1027 10 S/SE 9.3
Ieri h: 12:50 sereno Sereno 18 7 48 1027 10 S 7.4
Ieri h: 12:20 sereno Sereno 18 5 42 1027 10 SO 7.4
Ieri h: 11:50 sereno Sereno 18 5 42 1028 10 N 5.5
Ieri h: 09:50 sereno Sereno 13 6 62 1029 10 N 1.8
Ieri h: 09:20 sereno Sereno 11 6 71 1029 10 N 1.8
Ieri h: 08:50 sereno Sereno 9 5 75 1029 10 N 3.7
Ieri h: 08:20 sereno Sereno 7 5 87 1029 10 N 3.7
Ieri h: 07:50 sereno Sereno 3 3 100 1029 10 N 5.5
Ieri h: 07:20 sereno Sereno 2 2 100 1028 10 N 3.7
Ieri h: 06:50 sereno Sereno 2 2 100 1028 10 N 1.8
Ieri h: 06:20 sereno Sereno 3 3 100 1028 10 N 3.7
Ieri h: 05:50 sereno Sereno 2 2 100 1028 10 N 1.8
Ieri h: 05:20 sereno Sereno 4 3 93 1028 10 N 5.5
Ieri h: 04:50 sereno Sereno 3 3 100 1028 10 N 5.5
Ieri h: 04:20 sereno Sereno 3 3 100 1029 10 N 1.8
Ieri h: 03:50 sereno Sereno 3 3 100 1029 10 N 1.8